Overview Statistics Trail Chart Weather Telemetry Raw packets
 

This is the latest recevied weather packets stored in our database for station/object KO4LCK. If no packets are shown the sender has not sent any weather packets the latest 10 day(s).

<< 74 75 76 77 78 79 80 >>
Time Temp. Humidity Pressure Rain* Wind** Luminosity Snow
1788114185 31.67° C 57% 1021.6 hPa 0 mm - 144 W/m² -
1788113882 31.67° C 59% 1021.8 hPa 0 mm - 228 W/m² -
1788113576 31.67° C 57% 1021.9 hPa 0 mm - 263 W/m² -
1788113275 31.67° C 57% 1021.9 hPa 0 mm - 236 W/m² -
1788112970 31.67° C 59% 1021.8 hPa 0 mm - 285 W/m² -
1788112669 31.11° C 60% 1021.8 hPa 0 mm - 927 W/m² -
1788112364 32.22° C 57% 1021.9 hPa 0 mm - 180 W/m² -
1788112059 32.22° C 57% 1022.5 hPa 0 mm - 175 W/m² -
1788111755 31.67° C 56% 1022.2 hPa 0 mm - 882 W/m² -
1788111454 31.67° C 58% 1022.3 hPa 0 mm - 470 W/m² -
1788111150 31.67° C 58% 1022.2 hPa 0 mm - 882 W/m² -
1788110847 31.67° C 57% 1022.2 hPa 0 mm - 266 W/m² -
1788110543 30.56° C 60% 1022.3 hPa 0 mm - 909 W/m² -
1788110239 31.67° C 58% 1022.4 hPa 0 mm - 200 W/m² -
1788109933 31.11° C 61% 1022.5 hPa 0 mm - 870 W/m² -
1788109628 30.56° C 61% 1022.7 hPa 0 mm - 890 W/m² -
1788109326 30° C 64% 1022.7 hPa 0 mm - 852 W/m² -
1788109021 30° C 64% 1022.6 hPa 0 mm - 212 W/m² -
1788108717 30.56° C 62% 1023 hPa 0 mm - 183 W/m² -
1788108413 31.11° C 62% 1023 hPa 0 mm - 854 W/m² -
1788108109 31.11° C 62% 1023.1 hPa 0 mm - 193 W/m² -
1788107805 30.56° C 63% 1023.2 hPa 0 mm - 796 W/m² -
1788107500 30° C 64% 1023.3 hPa 0 mm - 597 W/m² -
1788107195 29.44° C 66% 1023.1 hPa 0 mm - 207 W/m² -
1788106890 29.44° C 66% 1023.3 hPa 0 mm - 263 W/m² -

* Rain latest hour (hover to see other rain measurements)
** Current wind speed in m/s (hover to see current wind gust speed)